sensor_id;sensor_type;location;lat;lon;timestamp;P1;durP1;ratioP1;P2;durP2;ratioP2
6828;SDS011;17930;48.592;8.868;2024-01-30T00:02:12;16.40;;;7.85;;
6828;SDS011;17930;48.592;8.868;2024-01-30T00:04:40;14.98;;;7.88;;
6828;SDS011;17930;48.592;8.868;2024-01-30T00:07:07;18.38;;;8.57;;
6828;SDS011;17930;48.592;8.868;2024-01-30T00:09:34;15.05;;;7.75;;
6828;SDS011;17930;48.592;8.868;2024-01-30T00:12:01;13.20;;;7.53;;
6828;SDS011;17930;48.592;8.868;2024-01-30T00:14:27;13.57;;;7.75;;
6828;SDS011;17930;48.592;8.868;2024-01-30T00:16:54;14.82;;;7.65;;
6828;SDS011;17930;48.592;8.868;2024-01-30T00:19:21;19.48;;;9.32;;
6828;SDS011;17930;48.592;8.868;2024-01-30T00:21:51;17.23;;;8.57;;
6828;SDS011;17930;48.592;8.868;2024-01-30T00:24:17;19.30;;;9.13;;
6828;SDS011;17930;48.592;8.868;2024-01-30T00:26:44;19.30;;;8.52;;
6828;SDS011;17930;48.592;8.868;2024-01-30T00:29:11;18.75;;;8.85;;
6828;SDS011;17930;48.592;8.868;2024-01-30T00:31:44;16.75;;;8.05;;
6828;SDS011;17930;48.592;8.868;2024-01-30T00:34:11;19.27;;;9.35;;
6828;SDS011;17930;48.592;8.868;2024-01-30T00:36:37;15.77;;;7.28;;
6828;SDS011;17930;48.592;8.868;2024-01-30T00:39:05;11.35;;;7.28;;
6828;SDS011;17930;48.592;8.868;2024-01-30T00:41:34;14.52;;;8.35;;
6828;SDS011;17930;48.592;8.868;2024-01-30T00:44:01;14.60;;;8.10;;
6828;SDS011;17930;48.592;8.868;2024-01-30T00:46:27;15.13;;;7.40;;
6828;SDS011;17930;48.592;8.868;2024-01-30T00:48:54;14.30;;;8.07;;
6828;SDS011;17930;48.592;8.868;2024-01-30T00:51:21;13.85;;;7.05;;
6828;SDS011;17930;48.592;8.868;2024-01-30T00:53:47;12.52;;;6.82;;
6828;SDS011;17930;48.592;8.868;2024-01-30T00:56:16;14.02;;;7.18;;
6828;SDS011;17930;48.592;8.868;2024-01-30T00:58:43;11.25;;;7.05;;
6828;SDS011;17930;48.592;8.868;2024-01-30T01:01:09;18.27;;;7.93;;
6828;SDS011;17930;48.592;8.868;2024-01-30T01:03:36;17.27;;;7.82;;
6828;SDS011;17930;48.592;8.868;2024-01-30T01:06:02;13.68;;;7.47;;
6828;SDS011;17930;48.592;8.868;2024-01-30T01:08:29;14.48;;;7.85;;
6828;SDS011;17930;48.592;8.868;2024-01-30T01:10:56;11.52;;;6.63;;
6828;SDS011;17930;48.592;8.868;2024-01-30T01:13:27;14.55;;;7.13;;
6828;SDS011;17930;48.592;8.868;2024-01-30T01:15:54;15.07;;;7.70;;
6828;SDS011;17930;48.592;8.868;2024-01-30T01:18:20;13.32;;;7.10;;
6828;SDS011;17930;48.592;8.868;2024-01-30T01:20:47;13.63;;;7.45;;
6828;SDS011;17930;48.592;8.868;2024-01-30T01:23:14;15.18;;;7.78;;
6828;SDS011;17930;48.592;8.868;2024-01-30T01:25:40;11.77;;;6.45;;
6828;SDS011;17930;48.592;8.868;2024-01-30T01:28:07;12.85;;;7.60;;
6828;SDS011;17930;48.592;8.868;2024-01-30T01:30:35;12.23;;;6.80;;
6828;SDS011;17930;48.592;8.868;2024-01-30T01:33:02;12.70;;;6.93;;
6828;SDS011;17930;48.592;8.868;2024-01-30T01:35:29;12.60;;;6.68;;
6828;SDS011;17930;48.592;8.868;2024-01-30T01:37:55;13.43;;;6.28;;
6828;SDS011;17930;48.592;8.868;2024-01-30T01:40:23;13.23;;;6.70;;
6828;SDS011;17930;48.592;8.868;2024-01-30T01:42:51;16.20;;;7.65;;
6828;SDS011;17930;48.592;8.868;2024-01-30T01:45:18;10.57;;;6.45;;
6828;SDS011;17930;48.592;8.868;2024-01-30T01:47:47;10.63;;;6.30;;
6828;SDS011;17930;48.592;8.868;2024-01-30T01:50:15;12.05;;;7.15;;
6828;SDS011;17930;48.592;8.868;2024-01-30T01:52:44;12.43;;;6.70;;
6828;SDS011;17930;48.592;8.868;2024-01-30T01:55:13;11.15;;;6.47;;
6828;SDS011;17930;48.592;8.868;2024-01-30T01:57:41;11.07;;;6.15;;
6828;SDS011;17930;48.592;8.868;2024-01-30T02:00:08;12.00;;;6.18;;
6828;SDS011;17930;48.592;8.868;2024-01-30T02:02:36;14.32;;;6.80;;
6828;SDS011;17930;48.592;8.868;2024-01-30T02:05:04;10.15;;;6.55;;
6828;SDS011;17930;48.592;8.868;2024-01-30T02:07:32;13.05;;;7.25;;
6828;SDS011;17930;48.592;8.868;2024-01-30T02:09:58;12.48;;;6.00;;
6828;SDS011;17930;48.592;8.868;2024-01-30T02:12:25;10.07;;;6.22;;
6828;SDS011;17930;48.592;8.868;2024-01-30T02:14:52;15.25;;;7.07;;
6828;SDS011;17930;48.592;8.868;2024-01-30T02:17:21;15.13;;;7.80;;
6828;SDS011;17930;48.592;8.868;2024-01-30T02:19:48;12.43;;;6.90;;
6828;SDS011;17930;48.592;8.868;2024-01-30T02:22:16;17.70;;;6.75;;
6828;SDS011;17930;48.592;8.868;2024-01-30T02:24:43;12.98;;;7.40;;
6828;SDS011;17930;48.592;8.868;2024-01-30T02:27:10;10.93;;;6.85;;
6828;SDS011;17930;48.592;8.868;2024-01-30T02:29:36;15.40;;;7.28;;
6828;SDS011;17930;48.592;8.868;2024-01-30T02:32:03;13.30;;;6.18;;
6828;SDS011;17930;48.592;8.868;2024-01-30T02:34:31;15.45;;;7.47;;
6828;SDS011;17930;48.592;8.868;2024-01-30T02:36:58;15.15;;;6.75;;
6828;SDS011;17930;48.592;8.868;2024-01-30T02:39:26;15.30;;;6.95;;
6828;SDS011;17930;48.592;8.868;2024-01-30T02:41:52;10.40;;;6.43;;
6828;SDS011;17930;48.592;8.868;2024-01-30T02:44:20;11.10;;;6.47;;
6828;SDS011;17930;48.592;8.868;2024-01-30T02:46:46;12.38;;;6.35;;
6828;SDS011;17930;48.592;8.868;2024-01-30T02:49:13;10.52;;;6.78;;
6828;SDS011;17930;48.592;8.868;2024-01-30T02:51:40;15.77;;;6.93;;
6828;SDS011;17930;48.592;8.868;2024-01-30T02:54:06;12.13;;;6.45;;
6828;SDS011;17930;48.592;8.868;2024-01-30T02:56:34;12.25;;;6.47;;
6828;SDS011;17930;48.592;8.868;2024-01-30T02:59:01;12.98;;;7.18;;
6828;SDS011;17930;48.592;8.868;2024-01-30T03:01:28;11.77;;;6.03;;
6828;SDS011;17930;48.592;8.868;2024-01-30T03:03:54;9.80;;;5.65;;
6828;SDS011;17930;48.592;8.868;2024-01-30T03:06:21;13.25;;;6.13;;
6828;SDS011;17930;48.592;8.868;2024-01-30T03:08:48;11.57;;;6.25;;
6828;SDS011;17930;48.592;8.868;2024-01-30T03:11:17;9.55;;;5.63;;
6828;SDS011;17930;48.592;8.868;2024-01-30T03:13:45;12.10;;;6.47;;
6828;SDS011;17930;48.592;8.868;2024-01-30T03:16:12;11.30;;;6.80;;
6828;SDS011;17930;48.592;8.868;2024-01-30T03:18:38;11.70;;;5.97;;
6828;SDS011;17930;48.592;8.868;2024-01-30T03:21:05;12.00;;;6.13;;
6828;SDS011;17930;48.592;8.868;2024-01-30T03:23:32;11.73;;;6.68;;
6828;SDS011;17930;48.592;8.868;2024-01-30T03:25:58;12.63;;;5.80;;
6828;SDS011;17930;48.592;8.868;2024-01-30T03:28:25;10.75;;;6.60;;
6828;SDS011;17930;48.592;8.868;2024-01-30T03:30:53;12.52;;;6.32;;
6828;SDS011;17930;48.592;8.868;2024-01-30T03:33:19;11.48;;;6.20;;
6828;SDS011;17930;48.592;8.868;2024-01-30T03:35:46;10.95;;;6.15;;
6828;SDS011;17930;48.592;8.868;2024-01-30T03:38:13;9.13;;;5.82;;
6828;SDS011;17930;48.592;8.868;2024-01-30T03:40:39;12.05;;;6.20;;
6828;SDS011;17930;48.592;8.868;2024-01-30T03:43:06;12.25;;;5.32;;
6828;SDS011;17930;48.592;8.868;2024-01-30T03:45:32;13.85;;;5.88;;
6828;SDS011;17930;48.592;8.868;2024-01-30T03:48:00;11.35;;;6.63;;
6828;SDS011;17930;48.592;8.868;2024-01-30T03:50:27;9.52;;;5.75;;
6828;SDS011;17930;48.592;8.868;2024-01-30T03:52:54;12.30;;;6.30;;
6828;SDS011;17930;48.592;8.868;2024-01-30T03:55:21;10.63;;;5.57;;
6828;SDS011;17930;48.592;8.868;2024-01-30T03:57:50;12.57;;;5.43;;
6828;SDS011;17930;48.592;8.868;2024-01-30T04:00:17;9.15;;;5.65;;
6828;SDS011;17930;48.592;8.868;2024-01-30T04:02:44;9.75;;;6.15;;
6828;SDS011;17930;48.592;8.868;2024-01-30T04:05:12;9.57;;;5.93;;
6828;SDS011;17930;48.592;8.868;2024-01-30T04:07:39;11.20;;;6.00;;
6828;SDS011;17930;48.592;8.868;2024-01-30T04:10:06;12.32;;;6.88;;
6828;SDS011;17930;48.592;8.868;2024-01-30T04:12:34;10.30;;;6.18;;
6828;SDS011;17930;48.592;8.868;2024-01-30T04:15:01;9.00;;;5.68;;
6828;SDS011;17930;48.592;8.868;2024-01-30T04:17:27;9.70;;;5.45;;
6828;SDS011;17930;48.592;8.868;2024-01-30T04:19:54;9.90;;;6.03;;
6828;SDS011;17930;48.592;8.868;2024-01-30T04:22:23;10.52;;;5.20;;
6828;SDS011;17930;48.592;8.868;2024-01-30T04:24:49;10.52;;;6.10;;
6828;SDS011;17930;48.592;8.868;2024-01-30T04:27:16;15.75;;;6.80;;
6828;SDS011;17930;48.592;8.868;2024-01-30T04:29:42;12.30;;;6.88;;
6828;SDS011;17930;48.592;8.868;2024-01-30T04:32:09;13.88;;;6.82;;
6828;SDS011;17930;48.592;8.868;2024-01-30T04:34:36;17.40;;;7.50;;
6828;SDS011;17930;48.592;8.868;2024-01-30T04:37:03;14.30;;;7.20;;
6828;SDS011;17930;48.592;8.868;2024-01-30T04:39:32;14.15;;;8.07;;
6828;SDS011;17930;48.592;8.868;2024-01-30T04:41:59;13.57;;;7.20;;
6828;SDS011;17930;48.592;8.868;2024-01-30T04:44:25;12.80;;;7.20;;
6828;SDS011;17930;48.592;8.868;2024-01-30T04:46:52;14.63;;;7.63;;
6828;SDS011;17930;48.592;8.868;2024-01-30T04:49:19;15.10;;;7.20;;
6828;SDS011;17930;48.592;8.868;2024-01-30T04:51:45;14.20;;;6.72;;
6828;SDS011;17930;48.592;8.868;2024-01-30T04:54:12;15.00;;;6.93;;
6828;SDS011;17930;48.592;8.868;2024-01-30T04:56:40;16.08;;;7.15;;
6828;SDS011;17930;48.592;8.868;2024-01-30T04:59:07;11.00;;;6.32;;
6828;SDS011;17930;48.592;8.868;2024-01-30T05:01:33;13.80;;;7.20;;
6828;SDS011;17930;48.592;8.868;2024-01-30T05:04:00;14.40;;;7.78;;
6828;SDS011;17930;48.592;8.868;2024-01-30T05:06:29;13.38;;;6.97;;
6828;SDS011;17930;48.592;8.868;2024-01-30T05:08:55;12.07;;;6.68;;
6828;SDS011;17930;48.592;8.868;2024-01-30T05:11:22;13.88;;;7.22;;
6828;SDS011;17930;48.592;8.868;2024-01-30T05:13:50;12.35;;;6.90;;
6828;SDS011;17930;48.592;8.868;2024-01-30T05:16:17;9.27;;;6.22;;
6828;SDS011;17930;48.592;8.868;2024-01-30T05:18:43;11.00;;;6.15;;
6828;SDS011;17930;48.592;8.868;2024-01-30T05:21:10;12.52;;;6.82;;
6828;SDS011;17930;48.592;8.868;2024-01-30T05:23:37;12.68;;;6.80;;
6828;SDS011;17930;48.592;8.868;2024-01-30T05:26:03;13.60;;;6.60;;
6828;SDS011;17930;48.592;8.868;2024-01-30T05:28:30;9.27;;;6.05;;
6828;SDS011;17930;48.592;8.868;2024-01-30T05:30:59;10.45;;;5.93;;
6828;SDS011;17930;48.592;8.868;2024-01-30T05:33:25;9.10;;;5.75;;
6828;SDS011;17930;48.592;8.868;2024-01-30T05:35:52;8.02;;;5.32;;
6828;SDS011;17930;48.592;8.868;2024-01-30T05:38:19;12.25;;;6.88;;
6828;SDS011;17930;48.592;8.868;2024-01-30T05:40:46;9.55;;;6.13;;
6828;SDS011;17930;48.592;8.868;2024-01-30T05:43:13;11.15;;;5.78;;
6828;SDS011;17930;48.592;8.868;2024-01-30T05:45:39;12.70;;;6.00;;
6828;SDS011;17930;48.592;8.868;2024-01-30T05:48:08;11.38;;;6.57;;
6828;SDS011;17930;48.592;8.868;2024-01-30T05:50:34;10.27;;;5.97;;
6828;SDS011;17930;48.592;8.868;2024-01-30T05:53:01;12.27;;;6.82;;
6828;SDS011;17930;48.592;8.868;2024-01-30T05:55:27;9.57;;;5.85;;
6828;SDS011;17930;48.592;8.868;2024-01-30T05:57:54;10.43;;;6.47;;
6828;SDS011;17930;48.592;8.868;2024-01-30T06:00:21;10.93;;;5.85;;
6828;SDS011;17930;48.592;8.868;2024-01-30T06:02:48;11.45;;;6.45;;
6828;SDS011;17930;48.592;8.868;2024-01-30T06:05:16;12.55;;;6.15;;
6828;SDS011;17930;48.592;8.868;2024-01-30T06:07:43;10.25;;;5.35;;
6828;SDS011;17930;48.592;8.868;2024-01-30T06:10:09;9.32;;;5.65;;
6828;SDS011;17930;48.592;8.868;2024-01-30T06:12:36;10.07;;;6.22;;
6828;SDS011;17930;48.592;8.868;2024-01-30T06:15:05;11.60;;;6.15;;
6828;SDS011;17930;48.592;8.868;2024-01-30T06:17:32;8.52;;;5.13;;
6828;SDS011;17930;48.592;8.868;2024-01-30T06:19:59;10.55;;;6.30;;
6828;SDS011;17930;48.592;8.868;2024-01-30T06:22:27;12.48;;;6.38;;
6828;SDS011;17930;48.592;8.868;2024-01-30T06:24:54;8.95;;;5.15;;
6828;SDS011;17930;48.592;8.868;2024-01-30T06:27:20;14.55;;;7.35;;
6828;SDS011;17930;48.592;8.868;2024-01-30T06:29:47;9.93;;;6.00;;
6828;SDS011;17930;48.592;8.868;2024-01-30T06:32:14;9.75;;;5.55;;
6828;SDS011;17930;48.592;8.868;2024-01-30T06:34:41;8.63;;;6.10;;
6828;SDS011;17930;48.592;8.868;2024-01-30T06:37:09;12.80;;;6.70;;
6828;SDS011;17930;48.592;8.868;2024-01-30T06:39:37;9.40;;;6.07;;
6828;SDS011;17930;48.592;8.868;2024-01-30T06:42:04;10.60;;;5.97;;
6828;SDS011;17930;48.592;8.868;2024-01-30T06:44:31;11.02;;;6.43;;
6828;SDS011;17930;48.592;8.868;2024-01-30T06:46:57;13.80;;;6.95;;
6828;SDS011;17930;48.592;8.868;2024-01-30T06:49:24;13.98;;;7.07;;
6828;SDS011;17930;48.592;8.868;2024-01-30T06:51:51;14.25;;;6.75;;
6828;SDS011;17930;48.592;8.868;2024-01-30T06:54:17;16.08;;;7.72;;
6828;SDS011;17930;48.592;8.868;2024-01-30T06:56:45;12.13;;;7.20;;
6828;SDS011;17930;48.592;8.868;2024-01-30T06:59:12;10.70;;;6.43;;
6828;SDS011;17930;48.592;8.868;2024-01-30T07:01:39;14.20;;;7.35;;
6828;SDS011;17930;48.592;8.868;2024-01-30T07:04:06;11.65;;;7.07;;
6828;SDS011;17930;48.592;8.868;2024-01-30T07:06:32;10.93;;;6.07;;
6828;SDS011;17930;48.592;8.868;2024-01-30T07:09:01;13.73;;;6.88;;
6828;SDS011;17930;48.592;8.868;2024-01-30T07:11:28;13.63;;;7.07;;
6828;SDS011;17930;48.592;8.868;2024-01-30T07:13:56;13.85;;;7.47;;
6828;SDS011;17930;48.592;8.868;2024-01-30T07:16:23;11.95;;;6.75;;
6828;SDS011;17930;48.592;8.868;2024-01-30T07:18:50;13.20;;;6.72;;
6828;SDS011;17930;48.592;8.868;2024-01-30T07:21:17;12.63;;;6.47;;
6828;SDS011;17930;48.592;8.868;2024-01-30T07:23:46;11.07;;;6.20;;
6828;SDS011;17930;48.592;8.868;2024-01-30T07:26:13;11.32;;;6.18;;
6828;SDS011;17930;48.592;8.868;2024-01-30T07:28:40;14.30;;;7.22;;
6828;SDS011;17930;48.592;8.868;2024-01-30T07:31:08;12.45;;;6.72;;
6828;SDS011;17930;48.592;8.868;2024-01-30T07:33:35;14.25;;;7.18;;
6828;SDS011;17930;48.592;8.868;2024-01-30T07:36:01;12.63;;;6.63;;
6828;SDS011;17930;48.592;8.868;2024-01-30T07:38:28;10.10;;;6.15;;
6828;SDS011;17930;48.592;8.868;2024-01-30T07:40:57;10.70;;;6.30;;
6828;SDS011;17930;48.592;8.868;2024-01-30T07:43:24;14.75;;;6.88;;
6828;SDS011;17930;48.592;8.868;2024-01-30T07:45:50;10.32;;;6.63;;
6828;SDS011;17930;48.592;8.868;2024-01-30T07:48:19;12.25;;;6.00;;
6828;SDS011;17930;48.592;8.868;2024-01-30T07:50:46;12.95;;;7.78;;
6828;SDS011;17930;48.592;8.868;2024-01-30T07:53:13;13.82;;;7.75;;
6828;SDS011;17930;48.592;8.868;2024-01-30T07:55:39;10.77;;;6.97;;
6828;SDS011;17930;48.592;8.868;2024-01-30T07:58:08;12.50;;;6.68;;
6828;SDS011;17930;48.592;8.868;2024-01-30T08:00:35;13.35;;;7.05;;
6828;SDS011;17930;48.592;8.868;2024-01-30T08:03:02;12.30;;;6.78;;
6828;SDS011;17930;48.592;8.868;2024-01-30T08:05:31;15.32;;;7.35;;
6828;SDS011;17930;48.592;8.868;2024-01-30T08:07:57;15.52;;;8.27;;
6828;SDS011;17930;48.592;8.868;2024-01-30T08:10:24;12.85;;;8.13;;
6828;SDS011;17930;48.592;8.868;2024-01-30T08:12:51;12.32;;;7.40;;
6828;SDS011;17930;48.592;8.868;2024-01-30T08:15:17;13.10;;;8.40;;
6828;SDS011;17930;48.592;8.868;2024-01-30T08:17:44;17.08;;;9.23;;
6828;SDS011;17930;48.592;8.868;2024-01-30T08:20:11;16.95;;;10.02;;
6828;SDS011;17930;48.592;8.868;2024-01-30T08:22:40;15.85;;;8.60;;
6828;SDS011;17930;48.592;8.868;2024-01-30T08:25:07;16.77;;;8.65;;
6828;SDS011;17930;48.592;8.868;2024-01-30T08:27:35;16.75;;;8.40;;
6828;SDS011;17930;48.592;8.868;2024-01-30T08:30:04;15.88;;;9.63;;
6828;SDS011;17930;48.592;8.868;2024-01-30T08:32:32;16.20;;;8.30;;
6828;SDS011;17930;48.592;8.868;2024-01-30T08:34:59;11.85;;;7.63;;
6828;SDS011;17930;48.592;8.868;2024-01-30T08:37:28;12.73;;;7.00;;
6828;SDS011;17930;48.592;8.868;2024-01-30T08:39:57;13.95;;;7.88;;
6828;SDS011;17930;48.592;8.868;2024-01-30T08:42:23;17.05;;;8.48;;
6828;SDS011;17930;48.592;8.868;2024-01-30T08:44:50;15.50;;;7.28;;
6828;SDS011;17930;48.592;8.868;2024-01-30T08:47:18;13.73;;;7.95;;
6828;SDS011;17930;48.592;8.868;2024-01-30T08:49:45;16.42;;;8.45;;
6828;SDS011;17930;48.592;8.868;2024-01-30T08:52:12;15.60;;;9.07;;
6828;SDS011;17930;48.592;8.868;2024-01-30T08:54:39;16.55;;;8.65;;
6828;SDS011;17930;48.592;8.868;2024-01-30T08:57:07;14.90;;;8.47;;
6828;SDS011;17930;48.592;8.868;2024-01-30T08:59:33;14.83;;;8.23;;
6828;SDS011;17930;48.592;8.868;2024-01-30T09:02:00;15.87;;;9.03;;
6828;SDS011;17930;48.592;8.868;2024-01-30T09:04:27;14.83;;;8.93;;
6828;SDS011;17930;48.592;8.868;2024-01-30T09:06:54;14.77;;;7.83;;
6828;SDS011;17930;48.592;8.868;2024-01-30T09:09:21;12.73;;;7.63;;
6828;SDS011;17930;48.592;8.868;2024-01-30T09:11:48;12.20;;;7.33;;
6828;SDS011;17930;48.592;8.868;2024-01-30T09:14:16;9.53;;;5.93;;
6828;SDS011;17930;48.592;8.868;2024-01-30T09:16:43;10.70;;;6.53;;
6828;SDS011;17930;48.592;8.868;2024-01-30T09:19:09;10.13;;;6.40;;
6828;SDS011;17930;48.592;8.868;2024-01-30T09:21:36;9.43;;;5.97;;
6828;SDS011;17930;48.592;8.868;2024-01-30T09:24:03;10.47;;;5.50;;
6828;SDS011;17930;48.592;8.868;2024-01-30T09:26:30;18.27;;;10.23;;
6828;SDS011;17930;48.592;8.868;2024-01-30T09:28:57;18.77;;;11.43;;
6828;SDS011;17930;48.592;8.868;2024-01-30T09:31:25;25.07;;;13.47;;
6828;SDS011;17930;48.592;8.868;2024-01-30T09:33:52;28.10;;;14.10;;
6828;SDS011;17930;48.592;8.868;2024-01-30T09:36:19;18.33;;;9.67;;
6828;SDS011;17930;48.592;8.868;2024-01-30T09:38:46;13.23;;;6.80;;
6828;SDS011;17930;48.592;8.868;2024-01-30T09:41:13;12.33;;;6.83;;
6828;SDS011;17930;48.592;8.868;2024-01-30T09:43:40;16.13;;;7.43;;
6828;SDS011;17930;48.592;8.868;2024-01-30T09:46:13;13.83;;;6.53;;
6828;SDS011;17930;48.592;8.868;2024-01-30T09:48:43;11.63;;;6.47;;
6828;SDS011;17930;48.592;8.868;2024-01-30T09:51:13;12.63;;;6.93;;
6828;SDS011;17930;48.592;8.868;2024-01-30T09:53:41;11.97;;;7.10;;
6828;SDS011;17930;48.592;8.868;2024-01-30T09:56:09;10.33;;;6.70;;
6828;SDS011;17930;48.592;8.868;2024-01-30T09:58:36;14.93;;;8.53;;
6828;SDS011;17930;48.592;8.868;2024-01-30T10:01:05;15.90;;;9.60;;
6828;SDS011;17930;48.592;8.868;2024-01-30T10:03:31;22.20;;;9.93;;
6828;SDS011;17930;48.592;8.868;2024-01-30T10:05:59;18.17;;;9.63;;
6828;SDS011;17930;48.592;8.868;2024-01-30T10:08:28;15.03;;;8.20;;
6828;SDS011;17930;48.592;8.868;2024-01-30T10:10:55;16.33;;;7.60;;
6828;SDS011;17930;48.592;8.868;2024-01-30T10:13:21;12.30;;;7.00;;
6828;SDS011;17930;48.592;8.868;2024-01-30T10:15:48;12.50;;;6.90;;
6828;SDS011;17930;48.592;8.868;2024-01-30T10:18:15;10.27;;;6.90;;
6828;SDS011;17930;48.592;8.868;2024-01-30T10:20:42;12.87;;;7.60;;
6828;SDS011;17930;48.592;8.868;2024-01-30T10:23:10;11.83;;;7.33;;
6828;SDS011;17930;48.592;8.868;2024-01-30T10:25:37;17.73;;;7.67;;
6828;SDS011;17930;48.592;8.868;2024-01-30T10:28:04;14.10;;;8.30;;
6828;SDS011;17930;48.592;8.868;2024-01-30T10:30:31;18.00;;;7.93;;
6828;SDS011;17930;48.592;8.868;2024-01-30T10:32:58;17.07;;;8.87;;
6828;SDS011;17930;48.592;8.868;2024-01-30T10:35:25;20.80;;;9.43;;
6828;SDS011;17930;48.592;8.868;2024-01-30T10:37:51;17.27;;;7.90;;
6828;SDS011;17930;48.592;8.868;2024-01-30T10:40:24;13.17;;;6.70;;
6828;SDS011;17930;48.592;8.868;2024-01-30T10:42:55;12.37;;;6.63;;
6828;SDS011;17930;48.592;8.868;2024-01-30T10:45:22;11.97;;;6.43;;
6828;SDS011;17930;48.592;8.868;2024-01-30T10:47:50;9.87;;;5.67;;
6828;SDS011;17930;48.592;8.868;2024-01-30T10:50:19;9.67;;;5.50;;
6828;SDS011;17930;48.592;8.868;2024-01-30T10:52:46;10.00;;;5.50;;
6828;SDS011;17930;48.592;8.868;2024-01-30T10:55:13;8.77;;;5.77;;
6828;SDS011;17930;48.592;8.868;2024-01-30T10:57:44;9.10;;;6.20;;
6828;SDS011;17930;48.592;8.868;2024-01-30T11:00:11;9.63;;;6.03;;
6828;SDS011;17930;48.592;8.868;2024-01-30T11:02:41;7.77;;;5.50;;
6828;SDS011;17930;48.592;8.868;2024-01-30T11:05:09;7.93;;;5.13;;
6828;SDS011;17930;48.592;8.868;2024-01-30T11:07:36;12.40;;;5.53;;
6828;SDS011;17930;48.592;8.868;2024-01-30T11:10:05;8.37;;;5.90;;
6828;SDS011;17930;48.592;8.868;2024-01-30T11:12:37;7.47;;;4.93;;
6828;SDS011;17930;48.592;8.868;2024-01-30T11:15:11;8.43;;;5.90;;
6828;SDS011;17930;48.592;8.868;2024-01-30T11:17:40;9.47;;;5.70;;
6828;SDS011;17930;48.592;8.868;2024-01-30T11:20:11;8.17;;;6.00;;
6828;SDS011;17930;48.592;8.868;2024-01-30T11:22:41;11.97;;;5.87;;
6828;SDS011;17930;48.592;8.868;2024-01-30T11:25:11;11.00;;;5.70;;
6828;SDS011;17930;48.592;8.868;2024-01-30T11:27:38;7.47;;;4.50;;
6828;SDS011;17930;48.592;8.868;2024-01-30T11:30:06;7.10;;;4.57;;
6828;SDS011;17930;48.592;8.868;2024-01-30T11:32:35;9.90;;;5.30;;
6828;SDS011;17930;48.592;8.868;2024-01-30T11:35:03;7.30;;;5.03;;
6828;SDS011;17930;48.592;8.868;2024-01-30T11:37:32;6.87;;;4.83;;
6828;SDS011;17930;48.592;8.868;2024-01-30T11:40:02;6.20;;;5.10;;
6828;SDS011;17930;48.592;8.868;2024-01-30T11:42:30;7.77;;;4.90;;
6828;SDS011;17930;48.592;8.868;2024-01-30T11:45:00;10.33;;;4.57;;
6828;SDS011;17930;48.592;8.868;2024-01-30T11:47:27;7.77;;;5.13;;
6828;SDS011;17930;48.592;8.868;2024-01-30T11:49:55;7.97;;;5.30;;
6828;SDS011;17930;48.592;8.868;2024-01-30T11:52:22;10.77;;;5.13;;
6828;SDS011;17930;48.592;8.868;2024-01-30T11:54:49;9.10;;;5.30;;
6828;SDS011;17930;48.592;8.868;2024-01-30T11:57:16;5.63;;;4.27;;
6828;SDS011;17930;48.592;8.868;2024-01-30T11:59:43;9.43;;;5.10;;
6828;SDS011;17930;48.592;8.868;2024-01-30T12:02:10;14.13;;;8.33;;
6828;SDS011;17930;48.592;8.868;2024-01-30T12:04:41;12.43;;;6.17;;
6828;SDS011;17930;48.592;8.868;2024-01-30T12:07:10;6.57;;;4.73;;
6828;SDS011;17930;48.592;8.868;2024-01-30T12:09:37;7.87;;;5.60;;
6828;SDS011;17930;48.592;8.868;2024-01-30T12:12:04;8.73;;;5.50;;
6828;SDS011;17930;48.592;8.868;2024-01-30T12:14:37;8.23;;;5.70;;
6828;SDS011;17930;48.592;8.868;2024-01-30T12:17:04;10.20;;;5.33;;
6828;SDS011;17930;48.592;8.868;2024-01-30T12:19:32;11.23;;;6.10;;
6828;SDS011;17930;48.592;8.868;2024-01-30T12:21:59;10.20;;;6.07;;
6828;SDS011;17930;48.592;8.868;2024-01-30T12:24:28;7.90;;;4.93;;
6828;SDS011;17930;48.592;8.868;2024-01-30T12:26:56;6.97;;;5.03;;
6828;SDS011;17930;48.592;8.868;2024-01-30T12:29:23;7.03;;;5.37;;
6828;SDS011;17930;48.592;8.868;2024-01-30T12:31:52;8.47;;;5.30;;
6828;SDS011;17930;48.592;8.868;2024-01-30T12:34:19;5.90;;;4.07;;
6828;SDS011;17930;48.592;8.868;2024-01-30T12:36:46;7.17;;;4.33;;
6828;SDS011;17930;48.592;8.868;2024-01-30T12:39:13;8.13;;;5.00;;
6828;SDS011;17930;48.592;8.868;2024-01-30T12:41:42;9.00;;;5.53;;
6828;SDS011;17930;48.592;8.868;2024-01-30T12:44:09;8.83;;;5.63;;
6828;SDS011;17930;48.592;8.868;2024-01-30T12:46:36;7.90;;;4.33;;
6828;SDS011;17930;48.592;8.868;2024-01-30T12:49:02;6.67;;;3.97;;
6828;SDS011;17930;48.592;8.868;2024-01-30T12:51:29;7.33;;;4.10;;
6828;SDS011;17930;48.592;8.868;2024-01-30T12:53:56;4.70;;;4.03;;
6828;SDS011;17930;48.592;8.868;2024-01-30T12:56:23;8.33;;;4.33;;
6828;SDS011;17930;48.592;8.868;2024-01-30T12:58:51;7.30;;;4.30;;
6828;SDS011;17930;48.592;8.868;2024-01-30T13:01:18;10.27;;;4.10;;
6828;SDS011;17930;48.592;8.868;2024-01-30T13:03:44;5.87;;;3.53;;
6828;SDS011;17930;48.592;8.868;2024-01-30T13:06:11;4.97;;;3.43;;
6828;SDS011;17930;48.592;8.868;2024-01-30T13:08:38;6.40;;;3.90;;
6828;SDS011;17930;48.592;8.868;2024-01-30T13:11:05;5.13;;;3.20;;
6828;SDS011;17930;48.592;8.868;2024-01-30T13:13:32;6.30;;;3.63;;
6828;SDS011;17930;48.592;8.868;2024-01-30T13:16:02;6.27;;;3.80;;
6828;SDS011;17930;48.592;8.868;2024-01-30T13:18:29;5.30;;;4.00;;
6828;SDS011;17930;48.592;8.868;2024-01-30T13:20:56;5.93;;;4.10;;
6828;SDS011;17930;48.592;8.868;2024-01-30T13:23:22;6.33;;;4.10;;
6828;SDS011;17930;48.592;8.868;2024-01-30T13:25:49;7.03;;;4.63;;
6828;SDS011;17930;48.592;8.868;2024-01-30T13:28:16;10.43;;;5.53;;
6828;SDS011;17930;48.592;8.868;2024-01-30T13:30:43;9.17;;;5.23;;
6828;SDS011;17930;48.592;8.868;2024-01-30T13:33:11;6.20;;;4.20;;
6828;SDS011;17930;48.592;8.868;2024-01-30T13:35:38;6.23;;;3.87;;
6828;SDS011;17930;48.592;8.868;2024-01-30T13:38:05;8.00;;;4.10;;
6828;SDS011;17930;48.592;8.868;2024-01-30T13:40:31;5.07;;;3.37;;
6828;SDS011;17930;48.592;8.868;2024-01-30T13:42:58;5.00;;;3.60;;
6828;SDS011;17930;48.592;8.868;2024-01-30T13:45:25;6.67;;;3.77;;
6828;SDS011;17930;48.592;8.868;2024-01-30T13:47:51;6.03;;;4.10;;
6828;SDS011;17930;48.592;8.868;2024-01-30T13:50:19;6.47;;;3.80;;
6828;SDS011;17930;48.592;8.868;2024-01-30T13:52:46;5.83;;;3.13;;
6828;SDS011;17930;48.592;8.868;2024-01-30T13:55:13;7.43;;;3.33;;
6828;SDS011;17930;48.592;8.868;2024-01-30T13:57:40;5.03;;;3.20;;
6828;SDS011;17930;48.592;8.868;2024-01-30T14:00:07;5.70;;;3.23;;
6828;SDS011;17930;48.592;8.868;2024-01-30T14:02:35;5.57;;;3.83;;
6828;SDS011;17930;48.592;8.868;2024-01-30T14:05:02;7.20;;;4.00;;
6828;SDS011;17930;48.592;8.868;2024-01-30T14:07:31;5.30;;;3.80;;
6828;SDS011;17930;48.592;8.868;2024-01-30T14:09:58;7.80;;;4.37;;
6828;SDS011;17930;48.592;8.868;2024-01-30T14:12:24;8.50;;;3.87;;
6828;SDS011;17930;48.592;8.868;2024-01-30T14:14:52;8.10;;;4.40;;
6828;SDS011;17930;48.592;8.868;2024-01-30T14:17:19;8.70;;;4.60;;
6828;SDS011;17930;48.592;8.868;2024-01-30T14:19:45;5.50;;;3.10;;
6828;SDS011;17930;48.592;8.868;2024-01-30T14:22:12;7.23;;;3.83;;
6828;SDS011;17930;48.592;8.868;2024-01-30T14:24:40;8.53;;;4.50;;
6828;SDS011;17930;48.592;8.868;2024-01-30T14:27:10;6.07;;;3.57;;
6828;SDS011;17930;48.592;8.868;2024-01-30T14:29:36;8.47;;;3.40;;
6828;SDS011;17930;48.592;8.868;2024-01-30T14:32:04;6.83;;;2.73;;
6828;SDS011;17930;48.592;8.868;2024-01-30T14:34:32;4.93;;;2.83;;
6828;SDS011;17930;48.592;8.868;2024-01-30T14:36:58;3.43;;;2.43;;
6828;SDS011;17930;48.592;8.868;2024-01-30T14:39:25;4.03;;;2.63;;
6828;SDS011;17930;48.592;8.868;2024-01-30T14:41:53;5.17;;;2.47;;
6828;SDS011;17930;48.592;8.868;2024-01-30T14:44:19;5.83;;;2.40;;
6828;SDS011;17930;48.592;8.868;2024-01-30T14:46:46;5.13;;;2.20;;
6828;SDS011;17930;48.592;8.868;2024-01-30T14:49:13;3.27;;;2.30;;
6828;SDS011;17930;48.592;8.868;2024-01-30T14:51:40;6.07;;;2.50;;
6828;SDS011;17930;48.592;8.868;2024-01-30T14:54:07;3.03;;;2.10;;